createdAt,value
2022-11-10T00:00:23.493Z,9.28
2022-11-10T00:02:49.823Z,9.21
2022-11-10T00:05:16.157Z,9.29
2022-11-10T00:07:42.476Z,9.27
2022-11-10T00:10:09.457Z,9.35
2022-11-10T00:12:35.781Z,9.32
2022-11-10T00:15:02.136Z,9.32
2022-11-10T00:17:28.580Z,9.32
2022-11-10T00:19:55.042Z,9.31
2022-11-10T00:22:25.211Z,9.32
2022-11-10T00:24:52.529Z,9.29
2022-11-10T00:27:18.822Z,9.36
2022-11-10T00:29:45.665Z,9.34
2022-11-10T00:32:12.057Z,9.30
2022-11-10T00:34:38.401Z,9.32
2022-11-10T00:37:04.781Z,9.41
2022-11-10T00:39:31.164Z,9.49
2022-11-10T00:41:57.782Z,9.53
2022-11-10T00:44:24.084Z,9.57
2022-11-10T00:46:50.856Z,9.51
2022-11-10T00:49:17.214Z,9.53
2022-11-10T00:51:43.582Z,9.52
2022-11-10T00:54:09.968Z,9.50
2022-11-10T00:56:36.334Z,9.50
2022-11-10T00:59:02.712Z,9.53
2022-11-10T01:01:29.104Z,9.46
2022-11-10T01:03:55.726Z,9.52
2022-11-10T01:06:22.513Z,9.50
2022-11-10T01:08:49.052Z,9.37
2022-11-10T01:11:25.242Z,9.34
2022-11-10T01:13:53.026Z,9.35
2022-11-10T01:16:30.442Z,9.34
2022-11-10T01:18:59.216Z,9.19
2022-11-10T01:21:27.034Z,9.28
2022-11-10T01:23:54.017Z,9.19
2022-11-10T01:26:21.216Z,9.16
2022-11-10T01:28:47.598Z,9.13
2022-11-10T01:31:16.536Z,9.16
2022-11-10T01:33:42.905Z,9.10
2022-11-10T01:36:11.409Z,9.08
2022-11-10T01:38:40.433Z,9.06
2022-11-10T01:41:09.391Z,9.12
2022-11-10T01:43:36.095Z,9.05
2022-11-10T01:46:10.471Z,8.97
2022-11-10T01:48:54.632Z,9.09
2022-11-10T01:51:23.634Z,9.08
2022-11-10T01:53:56.062Z,8.99
2022-11-10T01:56:24.312Z,9.04
2022-11-10T01:58:58.588Z,8.97
2022-11-10T02:01:25.516Z,9.03
2022-11-10T02:03:55.843Z,9.03
2022-11-10T02:06:25.382Z,8.94
2022-11-10T02:08:52.895Z,8.93
2022-11-10T02:11:19.655Z,9.02
2022-11-10T02:13:46.449Z,8.94
2022-11-10T02:16:13.056Z,8.96
2022-11-10T02:18:39.414Z,8.87
2022-11-10T02:21:07.061Z,8.99
2022-11-10T02:23:33.435Z,8.98
2022-11-10T02:26:00.819Z,8.95
2022-11-10T02:28:27.846Z,9.00
2022-11-10T02:30:54.431Z,8.94
2022-11-10T02:33:21.515Z,8.94
2022-11-10T02:35:48.102Z,8.99
2022-11-10T02:38:14.773Z,8.97
2022-11-10T02:40:41.227Z,8.99
2022-11-10T02:43:12.169Z,8.98
2022-11-10T02:45:38.628Z,9.10
2022-11-10T02:48:05.178Z,9.08
2022-11-10T02:50:31.484Z,9.04
2022-11-10T02:52:57.855Z,9.13
2022-11-10T02:55:24.204Z,9.11
2022-11-10T02:57:50.565Z,9.11
2022-11-10T03:00:17.372Z,9.17
2022-11-10T03:02:43.735Z,9.11
2022-11-10T03:05:10.358Z,9.14
2022-11-10T03:07:36.714Z,9.15
2022-11-10T03:10:03.910Z,9.19
2022-11-10T03:12:30.257Z,9.13
2022-11-10T03:14:56.650Z,9.09
2022-11-10T03:17:23.097Z,9.16
2022-11-10T03:19:49.421Z,9.07
2022-11-10T03:22:16.030Z,9.14
2022-11-10T03:24:42.651Z,9.04
2022-11-10T03:27:09.003Z,9.04
2022-11-10T03:29:35.316Z,9.07
2022-11-10T03:32:01.697Z,9.00
2022-11-10T03:34:31.657Z,9.09
2022-11-10T03:36:58.358Z,8.97
2022-11-10T03:39:24.681Z,9.00
2022-11-10T03:41:51.060Z,9.09
2022-11-10T03:44:17.403Z,9.03
2022-11-10T03:46:43.725Z,9.07
2022-11-10T03:49:10.090Z,9.11
2022-11-10T03:51:36.433Z,9.16
2022-11-10T03:54:02.941Z,9.13
2022-11-10T03:56:29.292Z,9.11
2022-11-10T03:58:55.593Z,9.13
2022-11-10T04:01:22.987Z,9.22
2022-11-10T04:03:51.673Z,9.15
2022-11-10T04:06:18.753Z,9.22
2022-11-10T04:08:45.126Z,9.12
2022-11-10T04:11:11.465Z,9.20
2022-11-10T04:13:37.780Z,9.16
2022-11-10T04:16:04.154Z,9.26
2022-11-10T04:18:30.532Z,9.26
2022-11-10T04:21:01.487Z,9.26
2022-11-10T04:23:31.001Z,9.22
2022-11-10T04:26:04.692Z,9.23
2022-11-10T04:28:31.056Z,9.20
2022-11-10T04:30:57.368Z,9.22
2022-11-10T04:33:23.829Z,9.22
2022-11-10T04:35:50.473Z,9.20
2022-11-10T04:38:16.782Z,9.21
2022-11-10T04:40:43.184Z,9.32
2022-11-10T04:43:09.545Z,9.24
2022-11-10T04:45:35.872Z,9.28
2022-11-10T04:48:02.225Z,9.26
2022-11-10T04:50:28.592Z,9.30
2022-11-10T04:52:54.909Z,9.28
2022-11-10T04:55:21.227Z,9.36
2022-11-10T04:57:47.597Z,9.38
2022-11-10T05:00:14.574Z,9.29
2022-11-10T05:02:41.023Z,9.36
2022-11-10T05:05:07.758Z,9.36
2022-11-10T05:07:34.138Z,9.33
2022-11-10T05:10:00.519Z,9.26
2022-11-10T05:12:26.894Z,9.30
2022-11-10T05:14:53.248Z,9.33
2022-11-10T05:17:19.608Z,9.26
2022-11-10T05:19:46.002Z,9.27
2022-11-10T05:22:12.407Z,9.23
2022-11-10T05:24:39.121Z,9.26
2022-11-10T05:27:05.635Z,9.23
2022-11-10T05:29:32.495Z,9.16
2022-11-10T05:31:58.872Z,9.19
2022-11-10T05:34:25.265Z,9.21
2022-11-10T05:36:51.726Z,9.18
2022-11-10T05:39:18.089Z,9.16
2022-11-10T05:41:44.480Z,9.18
2022-11-10T05:44:10.914Z,9.09
2022-11-10T05:46:37.322Z,9.14
2022-11-10T05:49:03.723Z,9.09
2022-11-10T05:51:30.221Z,9.05
2022-11-10T05:53:56.639Z,9.01
2022-11-10T05:56:22.999Z,9.03
2022-11-10T05:58:49.338Z,9.08
2022-11-10T06:01:15.727Z,9.05
2022-11-10T06:03:42.184Z,8.98
2022-11-10T06:06:08.702Z,8.98
2022-11-10T06:08:35.116Z,8.97
2022-11-10T06:11:01.503Z,8.89
2022-11-10T06:13:27.914Z,8.94
2022-11-10T06:15:54.248Z,8.90
2022-11-10T06:18:20.567Z,8.93
2022-11-10T06:20:48.134Z,8.93
2022-11-10T06:23:15.101Z,8.87
2022-11-10T06:25:41.859Z,8.86
2022-11-10T06:28:09.659Z,8.79
2022-11-10T06:30:37.552Z,8.90
2022-11-10T06:33:04.168Z,8.87
2022-11-10T06:35:30.934Z,8.81
2022-11-10T06:38:09.162Z,8.85
2022-11-10T06:40:35.450Z,8.85
2022-11-10T06:43:02.090Z,8.83
2022-11-10T06:45:28.923Z,8.83
2022-11-10T06:48:02.260Z,8.82
2022-11-10T06:50:29.107Z,8.75
2022-11-10T06:52:56.633Z,8.74
2022-11-10T06:55:23.186Z,8.74
2022-11-10T06:57:49.689Z,8.73
2022-11-10T07:00:16.965Z,8.70
2022-11-10T07:02:43.326Z,8.75
2022-11-10T07:05:09.693Z,8.82
2022-11-10T07:07:36.039Z,8.84
2022-11-10T07:10:06.733Z,8.77
2022-11-10T07:12:33.619Z,8.81
2022-11-10T07:14:59.936Z,8.92
2022-11-10T07:17:26.258Z,8.96
2022-11-10T07:19:52.638Z,8.91
2022-11-10T07:22:18.975Z,8.97
2022-11-10T07:24:45.397Z,9.08
2022-11-10T07:27:11.768Z,9.12
2022-11-10T07:29:38.115Z,9.18
2022-11-10T07:32:04.804Z,9.16
2022-11-10T07:34:31.246Z,9.12
2022-11-10T07:36:57.573Z,9.32
2022-11-10T07:39:23.900Z,9.36
2022-11-10T07:41:52.636Z,9.41
2022-11-10T07:44:19.445Z,9.46
2022-11-10T07:46:45.852Z,9.46
2022-11-10T07:49:12.234Z,9.53
2022-11-10T07:51:38.600Z,9.62
2022-11-10T07:54:04.945Z,9.60
2022-11-10T07:56:36.930Z,9.69
2022-11-10T07:59:03.297Z,9.81
2022-11-10T08:01:29.798Z,9.84
2022-11-10T08:03:56.205Z,9.84
2022-11-10T08:06:22.625Z,9.99
2022-11-10T08:08:49.125Z,10.07
2022-11-10T08:11:15.484Z,10.11
2022-11-10T08:13:42.211Z,10.22
2022-11-10T08:16:08.729Z,10.27
2022-11-10T08:18:35.904Z,10.36
2022-11-10T08:21:04.222Z,10.37
2022-11-10T08:23:30.704Z,10.40
2022-11-10T08:26:01.291Z,10.47
2022-11-10T08:28:28.009Z,10.60
2022-11-10T08:30:54.600Z,10.63
2022-11-10T08:33:22.075Z,10.72
2022-11-10T08:35:51.262Z,10.75
2022-11-10T08:38:20.587Z,10.92
2022-11-10T08:40:47.415Z,11.04
2022-11-10T08:43:15.815Z,11.15
2022-11-10T08:45:43.541Z,11.33
2022-11-10T08:48:19.946Z,11.45
2022-11-10T08:50:47.768Z,11.56
2022-11-10T08:53:17.094Z,11.65
2022-11-10T08:55:46.421Z,11.73
2022-11-10T08:58:18.167Z,11.71
2022-11-10T09:00:45.097Z,11.74
2022-11-10T09:03:19.360Z,11.76
2022-11-10T09:05:46.893Z,11.72
2022-11-10T09:08:13.665Z,11.75
2022-11-10T09:10:45.759Z,11.74
2022-11-10T09:13:12.948Z,11.82
2022-11-10T09:15:40.137Z,11.83
2022-11-10T09:18:07.541Z,11.96
2022-11-10T09:20:37.051Z,12.07
2022-11-10T09:23:08.133Z,12.27
2022-11-10T09:25:34.535Z,12.47
2022-11-10T09:28:01.361Z,12.65
2022-11-10T09:30:28.113Z,12.87
2022-11-10T09:32:55.555Z,13.00
2022-11-10T09:35:22.982Z,13.21
2022-11-10T09:37:49.583Z,13.36
2022-11-10T09:40:23.557Z,13.53
2022-11-10T09:42:55.056Z,13.61
2022-11-10T09:45:26.990Z,13.74
2022-11-10T09:48:14.820Z,13.75
2022-11-10T09:50:49.526Z,13.67
2022-11-10T09:53:21.498Z,13.68
2022-11-10T09:55:56.478Z,13.76
2022-11-10T09:58:29.734Z,13.81
2022-11-10T10:01:07.866Z,13.92
2022-11-10T10:03:37.028Z,14.16
2022-11-10T10:06:12.433Z,14.27
2022-11-10T10:08:53.718Z,14.40
2022-11-10T10:11:30.180Z,14.41
2022-11-10T10:14:26.269Z,14.60
2022-11-10T10:17:18.274Z,14.74
2022-11-10T10:19:56.569Z,14.89
2022-11-10T10:22:49.775Z,15.01
2022-11-10T10:25:22.279Z,15.08
2022-11-10T10:27:58.933Z,15.25
2022-11-10T10:30:25.406Z,15.35
2022-11-10T10:32:57.880Z,15.41
2022-11-10T10:35:24.970Z,15.44
2022-11-10T10:37:55.435Z,15.52
2022-11-10T10:40:24.720Z,15.58
2022-11-10T10:42:51.343Z,15.64
2022-11-10T10:45:26.819Z,15.73
2022-11-10T10:47:55.596Z,15.75
2022-11-10T10:50:24.756Z,15.85
2022-11-10T10:53:17.505Z,15.88
2022-11-10T10:56:01.528Z,15.93
2022-11-10T10:58:30.846Z,15.96
2022-11-10T11:01:04.590Z,15.87
2022-11-10T11:03:41.834Z,15.82
2022-11-10T11:06:20.642Z,15.78
2022-11-10T11:09:14.336Z,15.86
2022-11-10T11:11:44.125Z,15.88
2022-11-10T11:14:27.462Z,15.98
2022-11-10T11:16:57.182Z,16.04
2022-11-10T11:19:27.431Z,15.98
2022-11-10T11:22:05.764Z,16.03
2022-11-10T11:25:16.217Z,16.05
2022-11-10T11:28:09.835Z,16.15
2022-11-10T11:30:50.759Z,16.09
2022-11-10T11:33:26.366Z,16.22
2022-11-10T11:36:20.774Z,16.18
2022-11-10T11:39:01.075Z,16.19
2022-11-10T11:42:07.090Z,16.20
2022-11-10T11:44:45.667Z,16.08
2022-11-10T11:47:36.461Z,16.01
2022-11-10T11:50:27.040Z,15.89
2022-11-10T11:53:08.819Z,15.86
2022-11-10T11:55:47.006Z,15.86
2022-11-10T11:58:34.582Z,15.83
2022-11-10T12:01:14.403Z,15.84
2022-11-10T12:04:07.075Z,15.79
2022-11-10T12:06:48.364Z,15.72
2022-11-10T12:09:31.849Z,15.70
2022-11-10T12:12:19.647Z,15.63
2022-11-10T12:14:56.493Z,15.51
2022-11-10T12:17:39.326Z,15.48
2022-11-10T12:20:26.907Z,15.36
2022-11-10T12:23:05.081Z,15.34
2022-11-10T12:25:40.367Z,15.27
2022-11-10T12:28:18.678Z,15.22
2022-11-10T12:30:47.229Z,15.19
2022-11-10T12:33:25.711Z,15.22
2022-11-10T12:35:55.122Z,15.16
2022-11-10T12:38:27.626Z,15.26
2022-11-10T12:41:01.826Z,15.27
2022-11-10T12:43:36.881Z,15.32
2022-11-10T12:46:07.744Z,15.33
2022-11-10T12:48:50.358Z,15.26
2022-11-10T12:51:54.307Z,15.34
2022-11-10T12:54:23.483Z,15.28
2022-11-10T12:57:05.253Z,15.29
2022-11-10T12:59:37.466Z,15.19
2022-11-10T13:02:22.118Z,15.15
2022-11-10T13:05:18.355Z,15.08
2022-11-10T13:07:48.655Z,15.06
2022-11-10T13:10:22.289Z,15.04
2022-11-10T13:13:04.463Z,15.02
2022-11-10T13:15:40.013Z,14.93
2022-11-10T13:18:09.393Z,14.88
2022-11-10T13:20:38.582Z,14.84
2022-11-10T13:23:21.045Z,14.79
2022-11-10T13:25:59.649Z,14.71
2022-11-10T13:28:47.603Z,14.68
2022-11-10T13:31:29.528Z,14.69
2022-11-10T13:34:06.338Z,14.71
2022-11-10T13:36:46.246Z,14.75
2022-11-10T13:39:35.712Z,14.84
2022-11-10T13:42:07.926Z,14.80
2022-11-10T13:44:39.747Z,14.74
2022-11-10T13:47:08.918Z,14.70
2022-11-10T13:50:02.649Z,14.68
2022-11-10T13:52:42.545Z,14.51
2022-11-10T13:55:38.047Z,14.54
2022-11-10T13:58:17.625Z,14.51
2022-11-10T14:00:50.281Z,14.44
2022-11-10T14:03:44.962Z,14.36
2022-11-10T14:06:16.705Z,14.32
2022-11-10T14:08:48.442Z,14.21
2022-11-10T14:11:26.817Z,14.16
2022-11-10T14:13:59.749Z,14.13
2022-11-10T14:16:28.680Z,14.10
2022-11-10T14:19:03.100Z,14.06
2022-11-10T14:21:36.529Z,14.04
2022-11-10T14:24:29.149Z,14.03
2022-11-10T14:26:59.829Z,13.98
2022-11-10T14:29:35.165Z,13.95
2022-11-10T14:32:04.475Z,13.88
2022-11-10T14:34:35.975Z,13.94
2022-11-10T14:37:04.070Z,13.86
2022-11-10T14:39:35.089Z,13.83
2022-11-10T14:42:05.637Z,13.84
2022-11-10T14:44:33.856Z,13.82
2022-11-10T14:47:23.962Z,13.69
2022-11-10T14:50:15.138Z,13.67
2022-11-10T14:52:44.917Z,13.64
2022-11-10T14:55:28.545Z,13.55
2022-11-10T14:58:28.074Z,13.59
2022-11-10T15:00:54.790Z,13.51
2022-11-10T15:03:35.961Z,13.50
2022-11-10T15:06:05.484Z,13.51
2022-11-10T15:08:32.305Z,13.45
2022-11-10T15:10:58.785Z,13.38
2022-11-10T15:13:28.232Z,13.36
2022-11-10T15:16:23.795Z,13.30
2022-11-10T15:18:50.576Z,13.24
2022-11-10T15:21:20.578Z,13.12
2022-11-10T15:24:00.613Z,13.17
2022-11-10T15:26:49.878Z,13.13
2022-11-10T15:29:23.642Z,13.07
2022-11-10T15:31:52.961Z,12.83
2022-11-10T15:34:53.055Z,12.91
2022-11-10T15:37:34.215Z,12.73
2022-11-10T15:43:19.677Z,12.88
2022-11-10T15:46:18.855Z,12.85
2022-11-10T15:51:52.410Z,12.69
2022-11-10T15:54:32.827Z,12.75
2022-11-10T15:56:59.282Z,12.71
2022-11-10T15:59:25.675Z,12.61
2022-11-10T16:01:52.851Z,12.56
2022-11-10T16:04:19.350Z,12.52
2022-11-10T16:06:46.170Z,12.48
2022-11-10T16:09:13.228Z,12.40
2022-11-10T16:11:44.565Z,12.41
2022-11-10T16:14:18.507Z,12.34
2022-11-10T16:16:45.104Z,12.33
2022-11-10T16:19:12.188Z,12.30
2022-11-10T16:21:39.785Z,12.21
2022-11-10T16:24:06.922Z,12.20
2022-11-10T16:26:34.107Z,12.03
2022-11-10T16:29:01.069Z,12.08
2022-11-10T16:31:27.952Z,11.99
2022-11-10T16:33:54.502Z,11.83
2022-11-10T16:36:25.495Z,11.94
2022-11-10T16:38:53.079Z,11.85
2022-11-10T16:41:19.793Z,11.86
2022-11-10T16:43:46.289Z,11.83
2022-11-10T16:46:26.726Z,11.78
2022-11-10T16:48:56.443Z,11.80
2022-11-10T16:51:29.944Z,11.70
2022-11-10T16:53:56.374Z,11.70
2022-11-10T16:56:22.760Z,11.61
2022-11-10T16:58:49.137Z,11.50
2022-11-10T17:01:20.546Z,11.47
2022-11-10T17:03:50.451Z,11.42
2022-11-10T17:06:18.818Z,11.44
2022-11-10T17:08:48.425Z,11.47
2022-11-10T17:11:14.965Z,11.54
2022-11-10T17:13:41.303Z,11.59
2022-11-10T17:16:19.809Z,11.65
2022-11-10T17:18:46.490Z,11.72
2022-11-10T17:21:14.235Z,11.79
2022-11-10T17:23:40.824Z,11.83
2022-11-10T17:26:12.024Z,11.83
2022-11-10T17:28:38.346Z,11.85
2022-11-10T17:31:04.806Z,11.84
2022-11-10T17:33:31.197Z,11.81
2022-11-10T17:35:58.948Z,11.77
2022-11-10T17:38:28.214Z,11.77
2022-11-10T17:40:55.029Z,11.63
2022-11-10T17:43:22.681Z,11.68
2022-11-10T17:45:49.293Z,11.56
2022-11-10T17:48:15.763Z,11.52
2022-11-10T17:50:44.056Z,11.49
2022-11-10T17:53:22.834Z,11.41
2022-11-10T17:55:49.640Z,11.40
2022-11-10T17:58:17.373Z,11.35
2022-11-10T18:00:45.207Z,11.28
2022-11-10T18:03:16.608Z,11.26
2022-11-10T18:05:43.078Z,11.25
2022-11-10T18:08:10.730Z,11.24
2022-11-10T18:10:41.443Z,11.21
2022-11-10T18:13:08.997Z,11.20
2022-11-10T18:15:35.372Z,11.11
2022-11-10T18:18:01.697Z,11.02
2022-11-10T18:20:28.032Z,11.00
2022-11-10T18:22:54.350Z,10.89
2022-11-10T18:25:20.812Z,10.90
2022-11-10T18:27:47.158Z,10.86
2022-11-10T18:30:14.377Z,10.91
2022-11-10T18:32:40.694Z,10.92
2022-11-10T18:35:07.536Z,10.92
2022-11-10T18:37:38.739Z,10.90
2022-11-10T18:40:06.193Z,10.90
2022-11-10T18:42:32.559Z,10.81
2022-11-10T18:44:58.918Z,10.76
2022-11-10T18:47:25.717Z,10.69
2022-11-10T18:49:52.042Z,10.58
2022-11-10T18:52:18.374Z,10.51
2022-11-10T18:54:44.753Z,10.45
2022-11-10T18:57:12.491Z,10.33
2022-11-10T18:59:39.273Z,10.29
2022-11-10T19:02:05.665Z,10.14
2022-11-10T19:04:32.054Z,10.04
2022-11-10T19:06:58.494Z,10.02
2022-11-10T19:09:24.902Z,9.98
2022-11-10T19:11:51.242Z,9.90
2022-11-10T19:14:17.649Z,9.83
2022-11-10T19:16:44.031Z,9.88
2022-11-10T19:19:10.716Z,9.86
2022-11-10T19:21:37.438Z,9.79
2022-11-10T19:24:04.002Z,9.78
2022-11-10T19:26:30.336Z,9.77
2022-11-10T19:28:56.828Z,9.92
2022-11-10T19:31:24.028Z,9.92
2022-11-10T19:33:55.941Z,9.91
2022-11-10T19:36:27.467Z,10.01
2022-11-10T19:38:55.331Z,9.95
2022-11-10T19:41:24.773Z,9.95
2022-11-10T19:43:51.442Z,9.95
2022-11-10T19:46:20.410Z,9.98
2022-11-10T19:48:46.746Z,10.09
2022-11-10T19:51:15.606Z,10.17
2022-11-10T19:53:43.415Z,10.21
2022-11-10T19:56:18.677Z,10.25
2022-11-10T19:58:44.990Z,10.31
2022-11-10T20:01:11.989Z,10.28
2022-11-10T20:03:38.585Z,10.32
2022-11-10T20:06:08.355Z,10.34
2022-11-10T20:08:34.725Z,10.37
2022-11-10T20:11:03.906Z,10.43
2022-11-10T20:13:30.943Z,10.44
2022-11-10T20:15:57.332Z,10.43
2022-11-10T20:18:24.021Z,10.46
2022-11-10T20:20:50.357Z,10.46
2022-11-10T20:23:16.672Z,10.51
2022-11-10T20:25:44.283Z,10.47
2022-11-10T20:28:10.613Z,10.50
2022-11-10T20:30:41.494Z,10.54
2022-11-10T20:33:07.879Z,10.51
2022-11-10T20:35:40.414Z,10.53
2022-11-10T20:38:06.772Z,10.52
2022-11-10T20:40:48.125Z,10.55
2022-11-10T20:43:14.445Z,10.56
2022-11-10T20:45:41.206Z,10.59
2022-11-10T20:48:07.534Z,10.49
2022-11-10T20:50:33.896Z,10.53
2022-11-10T20:53:00.283Z,10.50
2022-11-10T20:55:52.003Z,10.48
2022-11-10T20:58:12.992Z,10.51
2022-11-10T21:00:42.595Z,10.44
2022-11-10T21:03:08.978Z,10.44
2022-11-10T21:05:35.737Z,10.47
2022-11-10T21:08:02.066Z,10.40
2022-11-10T21:10:28.378Z,10.37
2022-11-10T21:12:54.735Z,10.38
2022-11-10T21:15:21.437Z,10.35
2022-11-10T21:17:47.766Z,10.26
2022-11-10T21:20:14.371Z,10.31
2022-11-10T21:22:40.702Z,10.36
2022-11-10T21:25:07.352Z,10.34
2022-11-10T21:27:33.704Z,10.37
2022-11-10T21:30:00.206Z,10.33
2022-11-10T21:32:26.762Z,10.36
2022-11-10T21:34:53.105Z,10.30
2022-11-10T21:37:19.482Z,10.35
2022-11-10T21:39:45.816Z,10.29
2022-11-10T21:42:12.174Z,10.17
2022-11-10T21:44:38.566Z,10.19
2022-11-10T21:47:04.943Z,10.16
2022-11-10T21:49:31.295Z,10.21
2022-11-10T21:51:57.627Z,10.09
2022-11-10T21:54:23.969Z,10.06
2022-11-10T21:56:50.325Z,10.09
2022-11-10T21:59:16.685Z,10.01
2022-11-10T22:01:43.043Z,10.05
2022-11-10T22:04:09.611Z,9.92
2022-11-10T22:06:35.980Z,10.02
2022-11-10T22:09:02.357Z,9.98
2022-11-10T22:11:28.683Z,9.96
2022-11-10T22:13:54.989Z,9.98
2022-11-10T22:16:28.067Z,9.99
2022-11-10T22:18:54.393Z,9.94
2022-11-10T22:21:20.722Z,9.91
2022-11-10T22:23:47.079Z,9.92
2022-11-10T22:26:13.954Z,9.87
2022-11-10T22:28:40.962Z,9.81
2022-11-10T22:31:08.890Z,9.85
2022-11-10T22:33:36.760Z,9.82
2022-11-10T22:36:04.444Z,9.68
2022-11-10T22:38:34.622Z,9.73
2022-11-10T22:41:00.949Z,9.76
2022-11-10T22:43:27.301Z,9.78
2022-11-10T22:45:53.661Z,9.83
2022-11-10T22:48:19.953Z,9.84
2022-11-10T22:50:54.107Z,9.71
2022-11-10T22:53:20.717Z,9.69
2022-11-10T22:55:47.147Z,9.71
2022-11-10T22:58:13.641Z,9.71
2022-11-10T23:00:40.061Z,9.70
2022-11-10T23:03:06.489Z,9.70
2022-11-10T23:05:36.557Z,9.60
2022-11-10T23:08:03.739Z,9.61
2022-11-10T23:10:30.045Z,9.61
2022-11-10T23:12:56.414Z,9.64
2022-11-10T23:15:24.117Z,9.55
2022-11-10T23:17:50.474Z,9.52
2022-11-10T23:20:16.856Z,9.58
2022-11-10T23:22:43.165Z,9.53
2022-11-10T23:25:09.472Z,9.52
2022-11-10T23:27:36.022Z,9.53
2022-11-10T23:30:02.367Z,9.50
2022-11-10T23:32:28.752Z,9.59
2022-11-10T23:34:55.078Z,9.59
2022-11-10T23:37:21.483Z,9.58
2022-11-10T23:39:47.841Z,9.62
2022-11-10T23:42:14.198Z,9.59
2022-11-10T23:44:40.588Z,9.61
2022-11-10T23:47:06.995Z,9.67
2022-11-10T23:49:33.362Z,9.63
2022-11-10T23:51:59.711Z,9.64
2022-11-10T23:54:26.110Z,9.60
2022-11-10T23:56:52.437Z,9.62
2022-11-10T23:59:18.803Z,9.59
